createdAt,value
2023-03-02T00:03:33.813Z,149.40
2023-03-02T00:08:38.685Z,131.40
2023-03-02T00:13:42.686Z,135.80
2023-03-02T00:18:46.242Z,121.80
2023-03-02T00:23:49.923Z,124.10
2023-03-02T00:28:56.153Z,119.00
2023-03-02T00:33:59.786Z,132.20
2023-03-02T00:39:04.924Z,141.00
2023-03-02T00:44:08.538Z,126.40
2023-03-02T00:49:13.287Z,133.90
2023-03-02T00:54:17.361Z,132.60
2023-03-02T00:59:29.657Z,171.40
2023-03-02T01:04:46.636Z,174.00
2023-03-02T01:09:50.584Z,161.40
2023-03-02T01:14:56.694Z,158.50
2023-03-02T01:20:00.910Z,141.00
2023-03-02T01:25:06.558Z,137.10
2023-03-02T01:30:11.209Z,146.40
2023-03-02T01:35:14.918Z,108.80
2023-03-02T01:40:18.718Z,159.20
2023-03-02T01:45:46.311Z,197.60
2023-03-02T01:50:53.496Z,195.30
2023-03-02T01:56:00.129Z,147.60
2023-03-02T02:01:05.305Z,170.50
2023-03-02T02:06:18.650Z,162.00
2023-03-02T02:11:22.765Z,162.20
2023-03-02T02:16:33.058Z,145.60
2023-03-02T02:21:38.296Z,144.10
2023-03-02T02:26:56.189Z,134.90
2023-03-02T02:32:07.010Z,140.10
2023-03-02T02:37:21.016Z,158.70
2023-03-02T02:42:34.896Z,136.60
2023-03-02T02:47:39.158Z,157.10
2023-03-02T02:52:44.986Z,248.70
2023-03-02T02:57:53.631Z,230.40
2023-03-02T03:03:29.925Z,253.00
2023-03-02T03:08:42.423Z,207.40
2023-03-02T03:13:48.201Z,241.40
2023-03-02T03:18:52.840Z,211.00
2023-03-02T03:24:12.865Z,182.10
2023-03-02T03:29:17.394Z,198.30
2023-03-02T03:34:22.116Z,210.60
2023-03-02T03:39:25.854Z,169.10
2023-03-02T03:44:30.060Z,160.60
2023-03-02T03:49:34.020Z,167.80
2023-03-02T03:54:38.721Z,179.00
2023-03-02T03:59:44.043Z,151.30
2023-03-02T04:04:48.614Z,342.60
2023-03-02T04:10:03.927Z,203.30
2023-03-02T04:15:15.052Z,161.30
2023-03-02T04:20:24.374Z,142.20
2023-03-02T04:25:31.563Z,151.60
2023-03-02T04:30:44.091Z,156.10
2023-03-02T04:35:48.392Z,140.30
2023-03-02T04:40:52.127Z,150.30
2023-03-02T04:45:56.844Z,147.40
2023-03-02T04:51:00.870Z,162.20
2023-03-02T04:56:04.906Z,151.30
2023-03-02T05:01:10.748Z,170.60
2023-03-02T05:06:15.120Z,186.30
2023-03-02T05:11:30.270Z,172.70
2023-03-02T05:16:36.901Z,140.60
2023-03-02T05:21:40.942Z,142.60
2023-03-02T05:26:46.616Z,139.70
2023-03-02T05:31:51.355Z,162.00
2023-03-02T05:36:55.359Z,183.90
2023-03-02T05:41:58.998Z,153.00
2023-03-02T05:47:02.594Z,159.00
2023-03-02T05:52:06.430Z,160.30
2023-03-02T05:57:09.987Z,154.20
2023-03-02T06:02:14.174Z,164.60
2023-03-02T06:07:18.436Z,160.70
2023-03-02T06:12:22.694Z,163.90
2023-03-02T06:17:27.100Z,238.70
2023-03-02T06:22:33.961Z,260.70
2023-03-02T06:27:39.194Z,202.50
2023-03-02T06:32:43.433Z,203.80
2023-03-02T06:37:48.292Z,198.80
2023-03-02T06:42:53.261Z,197.10
2023-03-02T06:47:56.981Z,244.10
2023-03-02T06:53:01.228Z,202.00
2023-03-02T06:58:05.023Z,188.70
2023-03-02T07:03:08.869Z,196.60
2023-03-02T07:08:12.646Z,202.50
2023-03-02T07:13:16.459Z,159.90
2023-03-02T07:18:21.060Z,176.10
2023-03-02T07:23:25.612Z,197.80
2023-03-02T07:28:29.620Z,203.90
2023-03-02T07:33:33.362Z,198.50
2023-03-02T07:38:38.431Z,182.00
2023-03-02T07:43:43.087Z,162.80
2023-03-02T07:48:47.362Z,159.70
2023-03-02T07:53:51.110Z,143.60
2023-03-02T07:58:55.304Z,167.10
2023-03-02T08:03:59.056Z,103.70
2023-03-02T08:09:04.707Z,115.40
2023-03-02T08:14:08.467Z,140.80
2023-03-02T08:19:12.137Z,113.30
2023-03-02T08:24:16.449Z,120.30
2023-03-02T08:29:20.619Z,113.40
2023-03-02T08:34:26.671Z,143.50
2023-03-02T08:39:32.465Z,113.30
2023-03-02T08:44:36.959Z,118.30
2023-03-02T08:49:40.851Z,110.60
2023-03-02T08:54:46.233Z,102.20
2023-03-02T08:59:52.706Z,94.30
2023-03-02T09:04:57.612Z,74.00
2023-03-02T09:10:02.349Z,74.70
2023-03-02T09:15:07.370Z,62.10
2023-03-02T09:20:12.496Z,74.40
2023-03-02T09:25:20.728Z,57.40
2023-03-02T09:30:26.878Z,61.60
2023-03-02T09:35:32.058Z,57.20
2023-03-02T09:40:41.352Z,55.30
2023-03-02T09:45:51.659Z,58.10
2023-03-02T09:50:59.604Z,51.20
2023-03-02T09:56:05.644Z,53.70
2023-03-02T10:01:16.838Z,44.80
2023-03-02T10:06:22.528Z,44.80
2023-03-02T10:11:36.009Z,44.80
2023-03-02T10:16:46.137Z,49.00
2023-03-02T10:22:16.265Z,45.80
2023-03-02T10:27:40.346Z,38.10
2023-03-02T10:32:46.642Z,33.50
2023-03-02T10:38:01.204Z,31.10
2023-03-02T10:43:06.555Z,29.10
2023-03-02T10:48:12.809Z,25.70
2023-03-02T10:53:20.326Z,29.50
2023-03-02T10:58:33.528Z,29.10
2023-03-02T11:03:38.299Z,27.90
2023-03-02T11:08:41.969Z,31.30
2023-03-02T11:13:46.673Z,33.80
2023-03-02T11:19:01.235Z,34.90
2023-03-02T11:24:27.284Z,31.70
2023-03-02T11:29:38.485Z,26.60
2023-03-02T11:39:55.584Z,29.00
2023-03-02T11:45:23.106Z,26.00
2023-03-02T11:50:26.828Z,21.40
2023-03-02T11:55:36.585Z,17.20
2023-03-02T12:00:42.623Z,19.40
2023-03-02T12:05:54.030Z,17.50
2023-03-02T12:11:01.697Z,25.50
2023-03-02T12:16:19.930Z,25.20
2023-03-02T12:21:25.160Z,29.80
2023-03-02T12:26:33.313Z,26.00
2023-03-02T12:31:43.080Z,26.20
2023-03-02T12:36:47.048Z,39.40
2023-03-02T12:42:18.789Z,30.20
2023-03-02T12:47:30.323Z,32.90
2023-03-02T12:52:36.683Z,30.60
2023-03-02T12:57:52.326Z,35.20
2023-03-02T13:02:57.861Z,32.20
2023-03-02T13:08:06.502Z,32.00
2023-03-02T13:13:27.188Z,26.60
2023-03-02T13:18:33.812Z,28.80
2023-03-02T13:23:37.464Z,27.30
2023-03-02T13:28:42.313Z,27.50
2023-03-02T13:33:51.722Z,18.40
2023-03-02T13:39:00.012Z,21.50
2023-03-02T13:44:21.810Z,22.90
2023-03-02T13:49:32.847Z,19.60
2023-03-02T13:54:37.609Z,19.20
2023-03-02T13:59:42.371Z,16.80
2023-03-02T14:04:46.035Z,15.90
2023-03-02T14:09:50.012Z,17.50
2023-03-02T14:14:56.218Z,16.60
2023-03-02T14:19:59.748Z,17.20
2023-03-02T14:25:07.024Z,16.30
2023-03-02T14:30:17.344Z,20.70
2023-03-02T14:35:21.346Z,25.00
2023-03-02T14:40:28.051Z,27.50
2023-03-02T14:45:32.120Z,28.10
2023-03-02T14:50:39.526Z,29.30
2023-03-02T14:55:43.409Z,33.50
2023-03-02T15:00:47.755Z,48.10
2023-03-02T15:06:00.788Z,29.40
2023-03-02T15:11:06.900Z,34.30
2023-03-02T15:16:23.972Z,26.30
2023-03-02T15:21:27.902Z,26.00
2023-03-02T15:26:32.294Z,29.90
2023-03-02T15:31:36.362Z,29.40
2023-03-02T15:36:41.344Z,64.90
2023-03-02T15:41:45.229Z,63.60
2023-03-02T15:46:57.406Z,68.70
2023-03-02T15:52:01.996Z,73.50
2023-03-02T15:57:05.803Z,74.00
2023-03-02T16:02:10.698Z,72.70
2023-03-02T16:07:14.499Z,70.10
2023-03-02T16:12:23.734Z,77.10
2023-03-02T16:17:29.327Z,74.60
2023-03-02T16:22:34.393Z,85.60
2023-03-02T16:27:38.852Z,91.40
2023-03-02T16:32:42.782Z,86.40
2023-03-02T16:37:48.064Z,76.50
2023-03-02T16:42:53.312Z,89.10
2023-03-02T16:47:58.698Z,85.10
2023-03-02T16:53:04.658Z,77.90
2023-03-02T16:58:10.579Z,84.60
2023-03-02T17:03:18.567Z,108.30
2023-03-02T17:08:24.182Z,89.60
2023-03-02T17:13:32.133Z,98.40
2023-03-02T17:18:39.656Z,111.60
2023-03-02T17:23:49.180Z,105.20
2023-03-02T17:28:57.621Z,129.80
2023-03-02T17:34:04.985Z,105.50
2023-03-02T17:39:14.499Z,98.20
2023-03-02T17:44:23.625Z,101.40
2023-03-02T17:49:35.837Z,94.80
2023-03-02T17:54:46.166Z,101.70
2023-03-02T17:59:53.261Z,82.10
2023-03-02T18:04:57.982Z,100.40
2023-03-02T18:10:05.085Z,93.50
2023-03-02T18:15:09.800Z,93.10
2023-03-02T18:20:14.204Z,94.40
2023-03-02T18:25:19.232Z,104.50
2023-03-02T18:30:26.867Z,100.70
2023-03-02T18:35:32.764Z,102.30
2023-03-02T18:40:53.868Z,138.00
2023-03-02T18:45:58.907Z,142.60
2023-03-02T18:51:04.305Z,128.00
2023-03-02T18:56:10.557Z,120.20
2023-03-02T19:01:19.215Z,114.50
2023-03-02T19:06:26.607Z,98.20
2023-03-02T19:11:33.290Z,112.80
2023-03-02T19:16:42.580Z,111.60
2023-03-02T19:21:53.668Z,99.00
2023-03-02T19:27:02.815Z,116.90
2023-03-02T19:32:11.767Z,103.30
2023-03-02T19:37:17.705Z,124.70
2023-03-02T19:42:28.802Z,117.20
2023-03-02T19:47:39.687Z,123.20
2023-03-02T19:52:46.340Z,105.50
2023-03-02T19:58:00.133Z,98.30
2023-03-02T20:03:10.736Z,109.50
2023-03-02T20:08:19.067Z,105.60
2023-03-02T20:13:27.366Z,112.20
2023-03-02T20:18:33.766Z,108.80
2023-03-02T20:23:39.459Z,136.60
2023-03-02T20:28:44.939Z,141.10
2023-03-02T20:33:53.929Z,132.10
2023-03-02T20:39:17.742Z,118.80
2023-03-02T20:44:27.150Z,131.60
2023-03-02T20:49:33.678Z,168.10
2023-03-02T20:54:46.917Z,163.50
2023-03-02T21:04:59.610Z,109.40
2023-03-02T21:10:08.376Z,101.50
2023-03-02T21:15:13.823Z,129.50
2023-03-02T21:20:21.445Z,104.90
2023-03-02T21:25:25.701Z,113.90
2023-03-02T21:30:37.942Z,248.20
2023-03-02T21:35:45.421Z,277.20
2023-03-02T21:40:49.881Z,294.50
2023-03-02T21:45:55.211Z,150.00
2023-03-02T21:51:00.247Z,134.30
2023-03-02T21:56:04.950Z,281.70
2023-03-02T22:01:08.992Z,169.30
2023-03-02T22:06:23.935Z,199.70
2023-03-02T22:11:36.149Z,324.90
2023-03-02T22:16:43.622Z,270.40
2023-03-02T22:21:49.767Z,278.80
2023-03-02T22:27:20.628Z,209.00
2023-03-02T22:32:38.606Z,284.70
2023-03-02T22:37:44.847Z,326.90
2023-03-02T22:42:49.645Z,318.80
2023-03-02T22:47:54.252Z,229.80
2023-03-02T22:53:17.375Z,121.70
2023-03-02T22:58:46.826Z,168.10
2023-03-02T23:03:54.268Z,163.10
2023-03-02T23:09:00.856Z,127.90
2023-03-02T23:14:19.510Z,271.30
2023-03-02T23:19:23.536Z,241.00
2023-03-02T23:24:28.608Z,254.20
2023-03-02T23:29:32.635Z,238.10
2023-03-02T23:34:37.254Z,222.30
2023-03-02T23:39:41.042Z,214.80
2023-03-02T23:44:45.860Z,154.50
2023-03-02T23:49:50.408Z,193.90
2023-03-02T23:54:54.494Z,232.70
